sensor_id;sensor_type;location;lat;lon;timestamp;P1;durP1;ratioP1;P2;durP2;ratioP2
37781;SDS011;23621;50.878;4.584;2024-02-04T00:00:14;12.07;;;9.52;;
37781;SDS011;23621;50.878;4.584;2024-02-04T00:02:15;13.57;;;9.52;;
37781;SDS011;23621;50.878;4.584;2024-02-04T00:04:16;13.50;;;9.93;;
37781;SDS011;23621;50.878;4.584;2024-02-04T00:06:16;12.43;;;9.75;;
37781;SDS011;23621;50.878;4.584;2024-02-04T00:08:17;10.90;;;8.85;;
37781;SDS011;23621;50.878;4.584;2024-02-04T00:10:18;10.68;;;9.48;;
37781;SDS011;23621;50.878;4.584;2024-02-04T00:12:18;13.93;;;9.32;;
37781;SDS011;23621;50.878;4.584;2024-02-04T00:14:19;16.13;;;9.10;;
37781;SDS011;23621;50.878;4.584;2024-02-04T00:16:20;11.02;;;8.95;;
37781;SDS011;23621;50.878;4.584;2024-02-04T00:18:20;11.60;;;9.02;;
37781;SDS011;23621;50.878;4.584;2024-02-04T00:20:21;11.13;;;8.98;;
37781;SDS011;23621;50.878;4.584;2024-02-04T00:22:24;12.40;;;9.23;;
37781;SDS011;23621;50.878;4.584;2024-02-04T00:24:25;9.68;;;8.68;;
37781;SDS011;23621;50.878;4.584;2024-02-04T00:26:25;9.80;;;8.80;;
37781;SDS011;23621;50.878;4.584;2024-02-04T00:28:26;11.07;;;8.20;;
37781;SDS011;23621;50.878;4.584;2024-02-04T00:30:30;14.20;;;8.85;;
37781;SDS011;23621;50.878;4.584;2024-02-04T00:32:30;11.55;;;8.00;;
37781;SDS011;23621;50.878;4.584;2024-02-04T00:34:31;9.30;;;8.27;;
37781;SDS011;23621;50.878;4.584;2024-02-04T00:36:32;9.70;;;7.57;;
37781;SDS011;23621;50.878;4.584;2024-02-04T00:38:32;12.25;;;8.45;;
37781;SDS011;23621;50.878;4.584;2024-02-04T00:40:33;9.82;;;7.53;;
37781;SDS011;23621;50.878;4.584;2024-02-04T00:42:34;9.68;;;7.53;;
37781;SDS011;23621;50.878;4.584;2024-02-04T00:44:35;9.50;;;7.72;;
37781;SDS011;23621;50.878;4.584;2024-02-04T00:46:36;10.15;;;7.95;;
37781;SDS011;23621;50.878;4.584;2024-02-04T00:48:36;10.50;;;7.38;;
37781;SDS011;23621;50.878;4.584;2024-02-04T00:50:37;11.25;;;7.50;;
37781;SDS011;23621;50.878;4.584;2024-02-04T00:52:38;10.02;;;7.35;;
37781;SDS011;23621;50.878;4.584;2024-02-04T00:54:39;8.15;;;7.07;;
37781;SDS011;23621;50.878;4.584;2024-02-04T00:56:40;8.23;;;7.43;;
37781;SDS011;23621;50.878;4.584;2024-02-04T00:58:40;8.82;;;6.78;;
37781;SDS011;23621;50.878;4.584;2024-02-04T01:00:41;8.88;;;7.05;;
37781;SDS011;23621;50.878;4.584;2024-02-04T01:02:42;9.23;;;6.47;;
37781;SDS011;23621;50.878;4.584;2024-02-04T01:04:43;8.02;;;6.53;;
37781;SDS011;23621;50.878;4.584;2024-02-04T01:06:44;10.20;;;7.03;;
37781;SDS011;23621;50.878;4.584;2024-02-04T01:08:44;8.05;;;6.93;;
37781;SDS011;23621;50.878;4.584;2024-02-04T01:10:45;8.80;;;6.55;;
37781;SDS011;23621;50.878;4.584;2024-02-04T01:12:46;8.05;;;6.53;;
37781;SDS011;23621;50.878;4.584;2024-02-04T01:14:47;8.68;;;6.60;;
37781;SDS011;23621;50.878;4.584;2024-02-04T01:16:48;7.97;;;6.82;;
37781;SDS011;23621;50.878;4.584;2024-02-04T01:18:48;9.57;;;6.95;;
37781;SDS011;23621;50.878;4.584;2024-02-04T01:20:49;8.38;;;6.97;;
37781;SDS011;23621;50.878;4.584;2024-02-04T01:22:50;8.43;;;6.80;;
37781;SDS011;23621;50.878;4.584;2024-02-04T01:24:51;10.60;;;6.47;;
37781;SDS011;23621;50.878;4.584;2024-02-04T01:26:52;8.77;;;6.93;;
37781;SDS011;23621;50.878;4.584;2024-02-04T01:28:52;11.82;;;7.35;;
37781;SDS011;23621;50.878;4.584;2024-02-04T01:30:53;9.10;;;6.90;;
37781;SDS011;23621;50.878;4.584;2024-02-04T01:32:54;8.93;;;6.60;;
37781;SDS011;23621;50.878;4.584;2024-02-04T01:34:54;8.07;;;6.97;;
37781;SDS011;23621;50.878;4.584;2024-02-04T01:36:55;7.57;;;6.38;;
37781;SDS011;23621;50.878;4.584;2024-02-04T01:38:56;8.95;;;6.82;;
37781;SDS011;23621;50.878;4.584;2024-02-04T01:40:56;7.50;;;6.30;;
37781;SDS011;23621;50.878;4.584;2024-02-04T01:42:57;10.02;;;7.30;;
37781;SDS011;23621;50.878;4.584;2024-02-04T01:44:58;9.57;;;6.85;;
37781;SDS011;23621;50.878;4.584;2024-02-04T01:46:59;10.48;;;6.68;;
37781;SDS011;23621;50.878;4.584;2024-02-04T01:49:00;9.43;;;6.45;;
37781;SDS011;23621;50.878;4.584;2024-02-04T01:51:01;8.90;;;6.55;;
37781;SDS011;23621;50.878;4.584;2024-02-04T01:53:03;8.63;;;6.60;;
37781;SDS011;23621;50.878;4.584;2024-02-04T01:55:04;9.70;;;7.03;;
37781;SDS011;23621;50.878;4.584;2024-02-04T01:57:05;8.60;;;6.70;;
37781;SDS011;23621;50.878;4.584;2024-02-04T01:59:07;7.72;;;6.53;;
37781;SDS011;23621;50.878;4.584;2024-02-04T02:01:08;9.00;;;7.13;;
37781;SDS011;23621;50.878;4.584;2024-02-04T02:03:08;9.93;;;6.53;;
37781;SDS011;23621;50.878;4.584;2024-02-04T02:05:12;9.50;;;6.70;;
37781;SDS011;23621;50.878;4.584;2024-02-04T02:07:13;8.63;;;7.05;;
37781;SDS011;23621;50.878;4.584;2024-02-04T02:09:16;11.00;;;7.40;;
37781;SDS011;23621;50.878;4.584;2024-02-04T02:11:40;8.55;;;7.18;;
37781;SDS011;23621;50.878;4.584;2024-02-04T02:13:42;7.95;;;6.65;;
37781;SDS011;23621;50.878;4.584;2024-02-04T02:15:48;8.90;;;7.13;;
37781;SDS011;23621;50.878;4.584;2024-02-04T02:17:53;10.43;;;6.90;;
37781;SDS011;23621;50.878;4.584;2024-02-04T02:20:12;11.25;;;7.22;;
37781;SDS011;23621;50.878;4.584;2024-02-04T02:24:43;9.75;;;7.43;;
37781;SDS011;23621;50.878;4.584;2024-02-04T02:26:46;13.98;;;7.75;;
37781;SDS011;23621;50.878;4.584;2024-02-04T02:28:48;9.43;;;6.90;;
37781;SDS011;23621;50.878;4.584;2024-02-04T02:30:48;11.73;;;7.85;;
37781;SDS011;23621;50.878;4.584;2024-02-04T02:32:49;10.93;;;8.00;;
37781;SDS011;23621;50.878;4.584;2024-02-04T02:34:50;10.25;;;8.13;;
37781;SDS011;23621;50.878;4.584;2024-02-04T02:36:59;9.40;;;8.02;;
37781;SDS011;23621;50.878;4.584;2024-02-04T02:39:09;12.35;;;8.10;;
37781;SDS011;23621;50.878;4.584;2024-02-04T02:41:15;11.32;;;8.15;;
37781;SDS011;23621;50.878;4.584;2024-02-04T02:43:17;13.13;;;8.07;;
37781;SDS011;23621;50.878;4.584;2024-02-04T02:45:19;12.05;;;7.95;;
37781;SDS011;23621;50.878;4.584;2024-02-04T02:47:22;9.85;;;7.88;;
37781;SDS011;23621;50.878;4.584;2024-02-04T02:49:24;11.75;;;7.80;;
37781;SDS011;23621;50.878;4.584;2024-02-04T02:51:25;10.88;;;8.50;;
37781;SDS011;23621;50.878;4.584;2024-02-04T02:53:26;12.82;;;8.57;;
37781;SDS011;23621;50.878;4.584;2024-02-04T02:55:26;10.45;;;8.55;;
37781;SDS011;23621;50.878;4.584;2024-02-04T02:57:27;17.05;;;9.30;;
37781;SDS011;23621;50.878;4.584;2024-02-04T02:59:28;14.60;;;9.10;;
37781;SDS011;23621;50.878;4.584;2024-02-04T03:01:29;12.80;;;9.23;;
37781;SDS011;23621;50.878;4.584;2024-02-04T03:03:30;13.13;;;8.98;;
37781;SDS011;23621;50.878;4.584;2024-02-04T03:05:31;12.77;;;8.77;;
37781;SDS011;23621;50.878;4.584;2024-02-04T03:07:32;11.07;;;8.82;;
37781;SDS011;23621;50.878;4.584;2024-02-04T03:09:32;14.07;;;10.43;;
37781;SDS011;23621;50.878;4.584;2024-02-04T03:11:34;14.57;;;10.15;;
37781;SDS011;23621;50.878;4.584;2024-02-04T03:13:39;13.38;;;9.93;;
37781;SDS011;23621;50.878;4.584;2024-02-04T03:15:40;14.20;;;9.77;;
37781;SDS011;23621;50.878;4.584;2024-02-04T03:17:42;14.48;;;10.40;;
37781;SDS011;23621;50.878;4.584;2024-02-04T03:19:44;14.27;;;10.30;;
37781;SDS011;23621;50.878;4.584;2024-02-04T03:21:44;16.05;;;10.82;;
37781;SDS011;23621;50.878;4.584;2024-02-04T03:23:46;16.35;;;10.57;;
37781;SDS011;23621;50.878;4.584;2024-02-04T03:25:47;15.10;;;11.38;;
37781;SDS011;23621;50.878;4.584;2024-02-04T03:27:48;18.52;;;10.80;;
37781;SDS011;23621;50.878;4.584;2024-02-04T03:29:49;20.10;;;10.70;;
37781;SDS011;23621;50.878;4.584;2024-02-04T03:31:49;20.92;;;11.68;;
37781;SDS011;23621;50.878;4.584;2024-02-04T03:33:50;17.70;;;10.80;;
37781;SDS011;23621;50.878;4.584;2024-02-04T03:35:51;14.88;;;10.13;;
37781;SDS011;23621;50.878;4.584;2024-02-04T03:37:51;14.52;;;10.20;;
37781;SDS011;23621;50.878;4.584;2024-02-04T03:39:52;15.43;;;9.88;;
37781;SDS011;23621;50.878;4.584;2024-02-04T03:41:53;14.98;;;9.85;;
37781;SDS011;23621;50.878;4.584;2024-02-04T03:43:53;12.43;;;9.57;;
37781;SDS011;23621;50.878;4.584;2024-02-04T03:45:55;14.00;;;9.45;;
37781;SDS011;23621;50.878;4.584;2024-02-04T03:47:56;15.13;;;9.32;;
37781;SDS011;23621;50.878;4.584;2024-02-04T03:49:56;13.85;;;9.40;;
37781;SDS011;23621;50.878;4.584;2024-02-04T03:51:57;13.38;;;8.82;;
37781;SDS011;23621;50.878;4.584;2024-02-04T03:53:58;15.05;;;8.90;;
37781;SDS011;23621;50.878;4.584;2024-02-04T03:55:58;14.65;;;9.45;;
37781;SDS011;23621;50.878;4.584;2024-02-04T03:57:59;15.43;;;8.80;;
37781;SDS011;23621;50.878;4.584;2024-02-04T04:00:00;13.32;;;8.65;;
37781;SDS011;23621;50.878;4.584;2024-02-04T04:02:00;14.52;;;8.48;;
37781;SDS011;23621;50.878;4.584;2024-02-04T04:04:01;15.18;;;9.75;;
37781;SDS011;23621;50.878;4.584;2024-02-04T04:06:02;11.93;;;8.32;;
37781;SDS011;23621;50.878;4.584;2024-02-04T04:08:03;14.50;;;8.40;;
37781;SDS011;23621;50.878;4.584;2024-02-04T04:10:04;13.70;;;8.90;;
37781;SDS011;23621;50.878;4.584;2024-02-04T04:12:05;15.27;;;9.32;;
37781;SDS011;23621;50.878;4.584;2024-02-04T04:14:06;15.32;;;8.32;;
37781;SDS011;23621;50.878;4.584;2024-02-04T04:16:07;13.85;;;8.60;;
37781;SDS011;23621;50.878;4.584;2024-02-04T04:18:07;12.63;;;8.32;;
37781;SDS011;23621;50.878;4.584;2024-02-04T04:20:12;11.48;;;8.32;;
37781;SDS011;23621;50.878;4.584;2024-02-04T04:22:13;12.15;;;8.23;;
37781;SDS011;23621;50.878;4.584;2024-02-04T04:24:14;14.15;;;8.10;;
37781;SDS011;23621;50.878;4.584;2024-02-04T04:26:19;11.60;;;8.00;;
37781;SDS011;23621;50.878;4.584;2024-02-04T04:28:20;12.90;;;8.15;;
37781;SDS011;23621;50.878;4.584;2024-02-04T04:30:21;12.07;;;8.10;;
37781;SDS011;23621;50.878;4.584;2024-02-04T04:32:21;11.88;;;8.10;;
37781;SDS011;23621;50.878;4.584;2024-02-04T04:34:22;14.13;;;7.68;;
37781;SDS011;23621;50.878;4.584;2024-02-04T04:36:23;11.65;;;8.23;;
37781;SDS011;23621;50.878;4.584;2024-02-04T04:38:23;10.45;;;7.75;;
37781;SDS011;23621;50.878;4.584;2024-02-04T04:40:24;13.02;;;8.07;;
37781;SDS011;23621;50.878;4.584;2024-02-04T04:42:25;12.57;;;7.82;;
37781;SDS011;23621;50.878;4.584;2024-02-04T04:44:25;12.55;;;7.82;;
37781;SDS011;23621;50.878;4.584;2024-02-04T04:46:27;10.57;;;7.50;;
37781;SDS011;23621;50.878;4.584;2024-02-04T04:48:27;10.25;;;7.45;;
37781;SDS011;23621;50.878;4.584;2024-02-04T04:50:28;12.23;;;7.75;;
37781;SDS011;23621;50.878;4.584;2024-02-04T04:52:29;10.82;;;7.63;;
37781;SDS011;23621;50.878;4.584;2024-02-04T04:54:30;8.95;;;7.18;;
37781;SDS011;23621;50.878;4.584;2024-02-04T04:56:35;9.48;;;7.90;;
37781;SDS011;23621;50.878;4.584;2024-02-04T04:58:38;12.05;;;7.60;;
37781;SDS011;23621;50.878;4.584;2024-02-04T05:00:39;8.98;;;6.75;;
37781;SDS011;23621;50.878;4.584;2024-02-04T05:02:40;11.95;;;6.65;;
37781;SDS011;23621;50.878;4.584;2024-02-04T05:04:43;8.82;;;6.40;;
37781;SDS011;23621;50.878;4.584;2024-02-04T05:06:47;10.32;;;6.68;;
37781;SDS011;23621;50.878;4.584;2024-02-04T05:08:48;10.98;;;6.70;;
37781;SDS011;23621;50.878;4.584;2024-02-04T05:10:49;10.55;;;6.78;;
37781;SDS011;23621;50.878;4.584;2024-02-04T05:12:49;8.55;;;6.35;;
37781;SDS011;23621;50.878;4.584;2024-02-04T05:14:50;9.95;;;6.40;;
37781;SDS011;23621;50.878;4.584;2024-02-04T05:16:51;8.35;;;6.13;;
37781;SDS011;23621;50.878;4.584;2024-02-04T05:18:51;8.70;;;5.63;;
37781;SDS011;23621;50.878;4.584;2024-02-04T05:20:52;8.00;;;5.70;;
37781;SDS011;23621;50.878;4.584;2024-02-04T05:22:53;10.68;;;6.18;;
37781;SDS011;23621;50.878;4.584;2024-02-04T05:24:54;9.15;;;6.25;;
37781;SDS011;23621;50.878;4.584;2024-02-04T05:26:55;8.02;;;6.32;;
37781;SDS011;23621;50.878;4.584;2024-02-04T05:28:56;8.43;;;6.22;;
37781;SDS011;23621;50.878;4.584;2024-02-04T05:30:56;10.48;;;5.90;;
37781;SDS011;23621;50.878;4.584;2024-02-04T05:32:57;12.30;;;6.53;;
37781;SDS011;23621;50.878;4.584;2024-02-04T05:34:58;11.05;;;6.22;;
37781;SDS011;23621;50.878;4.584;2024-02-04T05:36:58;9.82;;;5.93;;
37781;SDS011;23621;50.878;4.584;2024-02-04T05:39:12;7.50;;;5.78;;
37781;SDS011;23621;50.878;4.584;2024-02-04T05:41:16;9.52;;;6.43;;
37781;SDS011;23621;50.878;4.584;2024-02-04T05:43:17;10.90;;;6.30;;
37781;SDS011;23621;50.878;4.584;2024-02-04T05:45:17;10.70;;;6.13;;
37781;SDS011;23621;50.878;4.584;2024-02-04T05:47:18;10.38;;;6.43;;
37781;SDS011;23621;50.878;4.584;2024-02-04T05:49:19;11.60;;;6.55;;
37781;SDS011;23621;50.878;4.584;2024-02-04T05:51:19;10.20;;;5.93;;
37781;SDS011;23621;50.878;4.584;2024-02-04T05:53:20;10.30;;;6.38;;
37781;SDS011;23621;50.878;4.584;2024-02-04T05:55:21;10.57;;;6.70;;
37781;SDS011;23621;50.878;4.584;2024-02-04T05:57:21;11.82;;;6.40;;
37781;SDS011;23621;50.878;4.584;2024-02-04T05:59:22;12.18;;;7.07;;
37781;SDS011;23621;50.878;4.584;2024-02-04T06:01:23;13.98;;;7.90;;
37781;SDS011;23621;50.878;4.584;2024-02-04T06:03:23;13.20;;;8.18;;
37781;SDS011;23621;50.878;4.584;2024-02-04T06:05:24;14.75;;;8.73;;
37781;SDS011;23621;50.878;4.584;2024-02-04T06:07:25;11.68;;;8.13;;
37781;SDS011;23621;50.878;4.584;2024-02-04T06:09:25;13.48;;;8.32;;
37781;SDS011;23621;50.878;4.584;2024-02-04T06:11:26;14.90;;;8.68;;
37781;SDS011;23621;50.878;4.584;2024-02-04T06:13:26;15.23;;;9.13;;
37781;SDS011;23621;50.878;4.584;2024-02-04T06:15:27;13.75;;;8.15;;
37781;SDS011;23621;50.878;4.584;2024-02-04T06:17:28;12.65;;;8.60;;
37781;SDS011;23621;50.878;4.584;2024-02-04T06:19:28;14.60;;;8.45;;
37781;SDS011;23621;50.878;4.584;2024-02-04T06:21:29;14.57;;;9.07;;
37781;SDS011;23621;50.878;4.584;2024-02-04T06:23:30;18.70;;;9.43;;
37781;SDS011;23621;50.878;4.584;2024-02-04T06:25:31;12.75;;;8.70;;
37781;SDS011;23621;50.878;4.584;2024-02-04T06:27:31;14.82;;;9.10;;
37781;SDS011;23621;50.878;4.584;2024-02-04T06:29:32;14.48;;;8.98;;
37781;SDS011;23621;50.878;4.584;2024-02-04T06:31:33;14.18;;;8.68;;
37781;SDS011;23621;50.878;4.584;2024-02-04T06:33:33;13.65;;;8.95;;
37781;SDS011;23621;50.878;4.584;2024-02-04T06:35:34;11.55;;;8.20;;
37781;SDS011;23621;50.878;4.584;2024-02-04T06:37:35;14.90;;;9.02;;
37781;SDS011;23621;50.878;4.584;2024-02-04T06:39:35;15.23;;;8.57;;
37781;SDS011;23621;50.878;4.584;2024-02-04T06:41:36;14.77;;;8.75;;
37781;SDS011;23621;50.878;4.584;2024-02-04T06:43:37;11.60;;;8.43;;
37781;SDS011;23621;50.878;4.584;2024-02-04T06:45:38;15.75;;;8.52;;
37781;SDS011;23621;50.878;4.584;2024-02-04T06:47:39;15.85;;;8.63;;
37781;SDS011;23621;50.878;4.584;2024-02-04T06:49:45;12.65;;;8.40;;
37781;SDS011;23621;50.878;4.584;2024-02-04T06:51:46;12.20;;;8.35;;
37781;SDS011;23621;50.878;4.584;2024-02-04T06:53:47;10.75;;;7.57;;
37781;SDS011;23621;50.878;4.584;2024-02-04T06:55:48;11.80;;;7.75;;
37781;SDS011;23621;50.878;4.584;2024-02-04T06:57:49;12.57;;;8.23;;
37781;SDS011;23621;50.878;4.584;2024-02-04T06:59:49;10.95;;;7.95;;
37781;SDS011;23621;50.878;4.584;2024-02-04T07:01:50;12.88;;;8.13;;
37781;SDS011;23621;50.878;4.584;2024-02-04T07:03:53;11.82;;;8.15;;
37781;SDS011;23621;50.878;4.584;2024-02-04T07:05:53;14.27;;;8.48;;
37781;SDS011;23621;50.878;4.584;2024-02-04T07:07:54;10.15;;;7.80;;
37781;SDS011;23621;50.878;4.584;2024-02-04T07:09:57;13.02;;;7.72;;
37781;SDS011;23621;50.878;4.584;2024-02-04T07:11:59;14.18;;;8.27;;
37781;SDS011;23621;50.878;4.584;2024-02-04T07:13:59;12.15;;;7.95;;
37781;SDS011;23621;50.878;4.584;2024-02-04T07:16:00;12.43;;;7.85;;
37781;SDS011;23621;50.878;4.584;2024-02-04T07:18:01;13.65;;;8.93;;
37781;SDS011;23621;50.878;4.584;2024-02-04T07:20:02;13.70;;;8.55;;
37781;SDS011;23621;50.878;4.584;2024-02-04T07:22:03;11.80;;;8.02;;
37781;SDS011;23621;50.878;4.584;2024-02-04T07:24:04;15.38;;;8.85;;
37781;SDS011;23621;50.878;4.584;2024-02-04T07:26:05;11.65;;;9.05;;
37781;SDS011;23621;50.878;4.584;2024-02-04T07:28:05;12.80;;;8.90;;
37781;SDS011;23621;50.878;4.584;2024-02-04T07:30:06;16.35;;;9.90;;
37781;SDS011;23621;50.878;4.584;2024-02-04T07:32:07;14.82;;;8.65;;
37781;SDS011;23621;50.878;4.584;2024-02-04T07:34:08;15.13;;;9.27;;
37781;SDS011;23621;50.878;4.584;2024-02-04T07:36:10;16.02;;;9.65;;
37781;SDS011;23621;50.878;4.584;2024-02-04T07:38:11;16.35;;;9.93;;
37781;SDS011;23621;50.878;4.584;2024-02-04T07:40:11;16.35;;;10.63;;
37781;SDS011;23621;50.878;4.584;2024-02-04T07:42:12;15.35;;;10.02;;
37781;SDS011;23621;50.878;4.584;2024-02-04T07:44:13;15.63;;;11.15;;
37781;SDS011;23621;50.878;4.584;2024-02-04T07:46:14;16.27;;;11.68;;
37781;SDS011;23621;50.878;4.584;2024-02-04T07:48:15;17.98;;;11.20;;
37781;SDS011;23621;50.878;4.584;2024-02-04T07:50:16;16.27;;;10.93;;
37781;SDS011;23621;50.878;4.584;2024-02-04T07:52:17;14.07;;;10.27;;
37781;SDS011;23621;50.878;4.584;2024-02-04T07:54:18;13.73;;;10.68;;
37781;SDS011;23621;50.878;4.584;2024-02-04T07:56:18;13.75;;;9.70;;
37781;SDS011;23621;50.878;4.584;2024-02-04T07:58:19;10.98;;;9.52;;
37781;SDS011;23621;50.878;4.584;2024-02-04T08:00:20;12.85;;;9.70;;
37781;SDS011;23621;50.878;4.584;2024-02-04T08:02:20;13.30;;;9.40;;
37781;SDS011;23621;50.878;4.584;2024-02-04T08:04:21;13.50;;;9.85;;
37781;SDS011;23621;50.878;4.584;2024-02-04T08:06:22;13.55;;;9.05;;
37781;SDS011;23621;50.878;4.584;2024-02-04T08:08:22;11.88;;;9.02;;
37781;SDS011;23621;50.878;4.584;2024-02-04T08:10:23;11.65;;;9.00;;
37781;SDS011;23621;50.878;4.584;2024-02-04T08:12:24;15.15;;;8.82;;
37781;SDS011;23621;50.878;4.584;2024-02-04T08:14:24;13.20;;;8.60;;
37781;SDS011;23621;50.878;4.584;2024-02-04T08:16:25;11.57;;;7.38;;
37781;SDS011;23621;50.878;4.584;2024-02-04T08:18:26;12.70;;;8.20;;
37781;SDS011;23621;50.878;4.584;2024-02-04T08:20:27;10.13;;;7.53;;
37781;SDS011;23621;50.878;4.584;2024-02-04T08:22:27;12.65;;;7.75;;
37781;SDS011;23621;50.878;4.584;2024-02-04T08:24:28;12.15;;;7.80;;
37781;SDS011;23621;50.878;4.584;2024-02-04T08:26:29;12.35;;;7.97;;
37781;SDS011;23621;50.878;4.584;2024-02-04T08:28:30;10.63;;;6.82;;
37781;SDS011;23621;50.878;4.584;2024-02-04T08:30:31;8.57;;;7.60;;
37781;SDS011;23621;50.878;4.584;2024-02-04T08:32:32;10.98;;;8.02;;
37781;SDS011;23621;50.878;4.584;2024-02-04T08:34:32;10.68;;;7.82;;
37781;SDS011;23621;50.878;4.584;2024-02-04T08:36:33;11.85;;;7.28;;
37781;SDS011;23621;50.878;4.584;2024-02-04T08:38:34;10.02;;;6.90;;
37781;SDS011;23621;50.878;4.584;2024-02-04T08:40:34;9.55;;;6.90;;
37781;SDS011;23621;50.878;4.584;2024-02-04T08:42:35;8.40;;;6.20;;
37781;SDS011;23621;50.878;4.584;2024-02-04T08:44:36;9.00;;;5.70;;
37781;SDS011;23621;50.878;4.584;2024-02-04T08:46:37;8.32;;;6.18;;
37781;SDS011;23621;50.878;4.584;2024-02-04T08:48:38;9.38;;;6.82;;
37781;SDS011;23621;50.878;4.584;2024-02-04T08:50:38;9.35;;;6.20;;
37781;SDS011;23621;50.878;4.584;2024-02-04T08:52:39;11.88;;;7.00;;
37781;SDS011;23621;50.878;4.584;2024-02-04T08:54:40;9.68;;;6.43;;
37781;SDS011;23621;50.878;4.584;2024-02-04T08:56:41;9.13;;;6.30;;
37781;SDS011;23621;50.878;4.584;2024-02-04T08:58:41;9.15;;;6.15;;
37781;SDS011;23621;50.878;4.584;2024-02-04T09:00:42;11.20;;;6.85;;
37781;SDS011;23621;50.878;4.584;2024-02-04T09:02:43;11.45;;;6.85;;
37781;SDS011;23621;50.878;4.584;2024-02-04T09:04:43;9.57;;;7.20;;
37781;SDS011;23621;50.878;4.584;2024-02-04T09:06:44;11.38;;;6.47;;
37781;SDS011;23621;50.878;4.584;2024-02-04T09:08:45;8.63;;;6.53;;
37781;SDS011;23621;50.878;4.584;2024-02-04T09:10:45;9.35;;;6.38;;
37781;SDS011;23621;50.878;4.584;2024-02-04T09:12:46;10.60;;;5.88;;
37781;SDS011;23621;50.878;4.584;2024-02-04T09:14:47;8.77;;;6.22;;
37781;SDS011;23621;50.878;4.584;2024-02-04T09:16:48;8.02;;;6.22;;
37781;SDS011;23621;50.878;4.584;2024-02-04T09:18:48;8.35;;;5.35;;
37781;SDS011;23621;50.878;4.584;2024-02-04T09:20:49;7.28;;;4.90;;
37781;SDS011;23621;50.878;4.584;2024-02-04T09:22:50;6.75;;;5.10;;
37781;SDS011;23621;50.878;4.584;2024-02-04T09:24:51;8.63;;;5.10;;
37781;SDS011;23621;50.878;4.584;2024-02-04T09:26:52;6.50;;;4.40;;
37781;SDS011;23621;50.878;4.584;2024-02-04T09:28:52;9.27;;;4.82;;
37781;SDS011;23621;50.878;4.584;2024-02-04T09:30:53;5.63;;;4.20;;
37781;SDS011;23621;50.878;4.584;2024-02-04T09:32:54;7.43;;;4.45;;
37781;SDS011;23621;50.878;4.584;2024-02-04T09:34:54;8.65;;;4.22;;
37781;SDS011;23621;50.878;4.584;2024-02-04T09:36:55;7.03;;;4.22;;
37781;SDS011;23621;50.878;4.584;2024-02-04T09:38:56;6.15;;;3.97;;
37781;SDS011;23621;50.878;4.584;2024-02-04T09:40:57;5.68;;;4.35;;
37781;SDS011;23621;50.878;4.584;2024-02-04T09:42:58;6.28;;;3.83;;
37781;SDS011;23621;50.878;4.584;2024-02-04T09:45:00;8.98;;;4.30;;
37781;SDS011;23621;50.878;4.584;2024-02-04T09:47:01;5.28;;;3.63;;
37781;SDS011;23621;50.878;4.584;2024-02-04T09:49:02;7.53;;;3.83;;
37781;SDS011;23621;50.878;4.584;2024-02-04T09:51:06;7.25;;;4.07;;
37781;SDS011;23621;50.878;4.584;2024-02-04T09:53:07;5.55;;;3.28;;
37781;SDS011;23621;50.878;4.584;2024-02-04T09:55:10;4.50;;;3.22;;
37781;SDS011;23621;50.878;4.584;2024-02-04T09:57:15;4.97;;;3.38;;
37781;SDS011;23621;50.878;4.584;2024-02-04T09:59:17;5.65;;;3.67;;
37781;SDS011;23621;50.878;4.584;2024-02-04T10:01:21;5.82;;;3.55;;
37781;SDS011;23621;50.878;4.584;2024-02-04T10:03:23;6.72;;;3.58;;
37781;SDS011;23621;50.878;4.584;2024-02-04T10:05:24;6.80;;;3.75;;
37781;SDS011;23621;50.878;4.584;2024-02-04T10:07:25;7.13;;;3.67;;
37781;SDS011;23621;50.878;4.584;2024-02-04T10:09:26;5.60;;;4.38;;
37781;SDS011;23621;50.878;4.584;2024-02-04T10:11:27;5.35;;;3.50;;
37781;SDS011;23621;50.878;4.584;2024-02-04T10:13:28;7.78;;;3.88;;
37781;SDS011;23621;50.878;4.584;2024-02-04T10:15:31;7.30;;;3.90;;
37781;SDS011;23621;50.878;4.584;2024-02-04T10:17:32;5.20;;;3.50;;
37781;SDS011;23621;50.878;4.584;2024-02-04T10:19:33;6.78;;;3.63;;
37781;SDS011;23621;50.878;4.584;2024-02-04T10:21:34;4.68;;;3.70;;
37781;SDS011;23621;50.878;4.584;2024-02-04T10:23:34;6.57;;;3.67;;
37781;SDS011;23621;50.878;4.584;2024-02-04T10:25:35;6.72;;;3.47;;
37781;SDS011;23621;50.878;4.584;2024-02-04T10:27:36;6.82;;;3.60;;
37781;SDS011;23621;50.878;4.584;2024-02-04T10:29:36;8.60;;;3.95;;
37781;SDS011;23621;50.878;4.584;2024-02-04T10:31:37;5.05;;;3.72;;
37781;SDS011;23621;50.878;4.584;2024-02-04T10:33:39;7.18;;;3.85;;
37781;SDS011;23621;50.878;4.584;2024-02-04T10:35:42;6.75;;;4.25;;
37781;SDS011;23621;50.878;4.584;2024-02-04T10:37:43;8.25;;;4.43;;
37781;SDS011;23621;50.878;4.584;2024-02-04T10:39:43;5.35;;;4.07;;
37781;SDS011;23621;50.878;4.584;2024-02-04T10:41:51;5.55;;;3.90;;
37781;SDS011;23621;50.878;4.584;2024-02-04T10:43:52;5.85;;;4.03;;
37781;SDS011;23621;50.878;4.584;2024-02-04T10:45:55;5.53;;;4.25;;
37781;SDS011;23621;50.878;4.584;2024-02-04T10:48:00;5.72;;;4.18;;
37781;SDS011;23621;50.878;4.584;2024-02-04T10:50:02;8.13;;;4.63;;
37781;SDS011;23621;50.878;4.584;2024-02-04T10:52:05;4.40;;;4.00;;
37781;SDS011;23621;50.878;4.584;2024-02-04T10:54:07;5.53;;;3.80;;
37781;SDS011;23621;50.878;4.584;2024-02-04T10:56:09;5.68;;;4.00;;
37781;SDS011;23621;50.878;4.584;2024-02-04T10:58:23;6.85;;;4.07;;
37781;SDS011;23621;50.878;4.584;2024-02-04T11:00:25;4.63;;;3.90;;
37781;SDS011;23621;50.878;4.584;2024-02-04T11:02:27;4.72;;;3.83;;
37781;SDS011;23621;50.878;4.584;2024-02-04T11:04:28;5.35;;;3.72;;
37781;SDS011;23621;50.878;4.584;2024-02-04T11:06:29;5.20;;;3.40;;
37781;SDS011;23621;50.878;4.584;2024-02-04T11:08:31;5.88;;;3.60;;
37781;SDS011;23621;50.878;4.584;2024-02-04T11:10:32;6.25;;;3.53;;
37781;SDS011;23621;50.878;4.584;2024-02-04T11:12:35;4.70;;;3.58;;
37781;SDS011;23621;50.878;4.584;2024-02-04T11:14:39;4.65;;;3.45;;
37781;SDS011;23621;50.878;4.584;2024-02-04T11:25:52;4.32;;;2.80;;
37781;SDS011;23621;50.878;4.584;2024-02-04T11:27:55;4.13;;;2.80;;
37781;SDS011;23621;50.878;4.584;2024-02-04T11:29:56;4.15;;;2.40;;
37781;SDS011;23621;50.878;4.584;2024-02-04T11:31:57;4.05;;;2.60;;
37781;SDS011;23621;50.878;4.584;2024-02-04T11:33:57;6.70;;;3.00;;
37781;SDS011;23621;50.878;4.584;2024-02-04T11:35:59;5.05;;;2.65;;
37781;SDS011;23621;50.878;4.584;2024-02-04T11:38:00;4.82;;;2.50;;
37781;SDS011;23621;50.878;4.584;2024-02-04T11:40:13;3.35;;;2.40;;
37781;SDS011;23621;50.878;4.584;2024-02-04T11:42:16;4.03;;;2.75;;
37781;SDS011;23621;50.878;4.584;2024-02-04T11:44:23;5.78;;;2.60;;
37781;SDS011;23621;50.878;4.584;2024-02-04T11:46:27;5.35;;;2.60;;
37781;SDS011;23621;50.878;4.584;2024-02-04T11:48:33;4.35;;;2.50;;
37781;SDS011;23621;50.878;4.584;2024-02-04T11:50:34;3.75;;;2.35;;
37781;SDS011;23621;50.878;4.584;2024-02-04T11:52:36;3.10;;;2.60;;
37781;SDS011;23621;50.878;4.584;2024-02-04T11:54:36;3.95;;;2.47;;
37781;SDS011;23621;50.878;4.584;2024-02-04T11:56:37;3.33;;;2.30;;
37781;SDS011;23621;50.878;4.584;2024-02-04T11:58:38;6.05;;;2.63;;
37781;SDS011;23621;50.878;4.584;2024-02-04T12:00:43;2.88;;;2.20;;
37781;SDS011;23621;50.878;4.584;2024-02-04T12:02:45;2.60;;;2.28;;
37781;SDS011;23621;50.878;4.584;2024-02-04T12:04:46;9.15;;;2.40;;
37781;SDS011;23621;50.878;4.584;2024-02-04T12:06:48;4.88;;;2.33;;
37781;SDS011;23621;50.878;4.584;2024-02-04T12:08:51;6.72;;;2.40;;
37781;SDS011;23621;50.878;4.584;2024-02-04T12:10:52;3.83;;;2.30;;
37781;SDS011;23621;50.878;4.584;2024-02-04T12:12:53;5.30;;;2.58;;
37781;SDS011;23621;50.878;4.584;2024-02-04T12:14:54;3.25;;;2.20;;
37781;SDS011;23621;50.878;4.584;2024-02-04T12:16:55;3.05;;;2.30;;